TimeCDT,TemperatureF,Dew PointF,Humidity,Sea Level PressureIn,VisibilityMPH,Wind Direction,Wind SpeedMPH,Gust SpeedMPH,PrecipitationIn,Events,Conditions,WindDirDegrees,DateUTC
12:52 AM,57.9,46.0,65,29.99,10.0,North,12.7,-,N/A,,Clear,350,2012-10-02 05:52:00
1:52 AM,55.9,44.1,64,30.00,10.0,North,9.2,-,N/A,,Clear,350,2012-10-02 06:52:00
2:52 AM,54.0,43.0,66,29.99,10.0,North,9.2,-,N/A,,Clear,350,2012-10-02 07:52:00
3:52 AM,53.1,41.0,64,29.99,10.0,North,8.1,-,N/A,,Clear,360,2012-10-02 08:52:00
4:52 AM,53.1,39.9,61,29.99,10.0,North,8.1,-,N/A,,Clear,10,2012-10-02 09:52:00
5:52 AM,45.0,39.0,80,30.01,10.0,NW,5.8,-,N/A,,Clear,310,2012-10-02 10:52:00
6:52 AM,43.0,37.0,80,30.01,10.0,WNW,4.6,-,N/A,,Clear,300,2012-10-02 11:52:00
7:52 AM,43.0,37.9,82,30.03,10.0,NW,8.1,-,N/A,,Clear,310,2012-10-02 12:52:00
8:52 AM,48.9,39.0,69,30.03,10.0,NW,8.1,-,N/A,,Clear,310,2012-10-02 13:52:00
9:52 AM,57.0,41.0,55,30.03,10.0,WNW,5.8,-,N/A,,Clear,300,2012-10-02 14:52:00
10:52 AM,63.0,41.0,45,30.02,10.0,West,4.6,-,N/A,,Clear,280,2012-10-02 15:52:00
11:52 AM,68.0,36.0,31,30.00,10.0,WNW,5.8,-,N/A,,Clear,290,2012-10-02 16:52:00
12:52 PM,71.1,35.1,27,29.97,10.0,WSW,5.8,-,N/A,,Clear,250,2012-10-02 17:52:00
2:52 PM,73.0,33.1,23,29.91,10.0,Variable,3.5,-,N/A,,Clear,0,2012-10-02 19:52:00
3:52 PM,73.9,32.0,21,29.89,10.0,WNW,6.9,-,N/A,,Clear,290,2012-10-02 20:52:00
4:52 PM,73.9,32.0,21,29.88,10.0,Calm,Calm,-,N/A,,Clear,0,2012-10-02 21:52:00
5:52 PM,73.0,32.0,22,29.87,10.0,Calm,Calm,-,N/A,,Clear,0,2012-10-02 22:52:00
6:52 PM,69.1,37.0,31,29.88,10.0,South,3.5,-,N/A,,Clear,170,2012-10-02 23:52:00
7:52 PM,53.1,39.9,61,29.89,10.0,East,3.5,-,N/A,,Clear,80,2012-10-03 00:52:00
9:52 PM,55.0,36.0,49,29.90,10.0,Calm,Calm,-,N/A,,Clear,0,2012-10-03 02:52:00
10:52 PM,54.0,37.0,53,29.90,10.0,Calm,Calm,-,N/A,,Clear,0,2012-10-03 03:52:00
11:52 PM,46.9,37.9,71,29.91,10.0,Calm,Calm,-,N/A,,Clear,0,2012-10-03 04:52:00